createdAt,value
2023-04-14T00:00:02.361Z,85.16
2023-04-14T00:03:01.799Z,85.08
2023-04-14T00:05:33.699Z,84.78
2023-04-14T00:08:02.233Z,85.41
2023-04-14T00:10:30.294Z,85.51
2023-04-14T00:12:58.122Z,86.30
2023-04-14T00:15:26.614Z,89.93
2023-04-14T00:17:54.434Z,88.44
2023-04-14T00:20:22.466Z,89.70
2023-04-14T00:22:50.043Z,89.61
2023-04-14T00:25:18.239Z,89.42
2023-04-14T00:27:45.914Z,90.67
2023-04-14T00:30:15.745Z,91.46
2023-04-14T00:32:43.448Z,91.67
2023-04-14T00:35:11.511Z,96.25
2023-04-14T00:37:39.203Z,95.97
2023-04-14T00:40:11.500Z,95.55
2023-04-14T00:42:43.534Z,96.72
2023-04-14T00:45:11.993Z,96.69
2023-04-14T00:47:41.102Z,95.00
2023-04-14T00:50:09.867Z,92.20
2023-04-14T00:52:39.244Z,92.75
2023-04-14T00:55:07.722Z,96.45
2023-04-14T00:57:35.482Z,95.32
2023-04-14T01:00:07.407Z,94.70
2023-04-14T01:02:35.446Z,97.17
2023-04-14T01:05:03.990Z,95.60
2023-04-14T01:07:31.927Z,96.41
2023-04-14T01:10:01.384Z,95.05
2023-04-14T01:12:37.941Z,95.92
2023-04-14T01:15:12.840Z,99.55
2023-04-14T01:17:47.830Z,100.00
2023-04-14T01:20:23.050Z,97.48
2023-04-14T01:23:10.977Z,98.78
2023-04-14T01:25:38.952Z,94.96
2023-04-14T01:28:22.631Z,94.15
2023-04-14T01:31:11.625Z,93.88
2023-04-14T01:33:41.724Z,92.33
2023-04-14T01:36:14.405Z,91.42
2023-04-14T01:38:44.444Z,93.23
2023-04-14T01:41:14.115Z,94.86
2023-04-14T01:43:44.372Z,92.37
2023-04-14T01:46:14.733Z,94.94
2023-04-14T01:48:42.815Z,95.99
2023-04-14T01:51:12.353Z,97.10
2023-04-14T01:53:43.281Z,97.33
2023-04-14T01:56:13.330Z,98.54
2023-04-14T01:58:42.666Z,100.00
2023-04-14T02:01:10.914Z,100.00
2023-04-14T02:03:40.050Z,100.00
2023-04-14T02:06:09.213Z,100.00
2023-04-14T02:08:37.814Z,100.00
2023-04-14T02:11:06.648Z,100.00
2023-04-14T02:13:35.563Z,100.00
2023-04-14T02:16:06.043Z,100.00
2023-04-14T02:18:34.160Z,99.76
2023-04-14T02:21:04.161Z,100.00
2023-04-14T02:23:33.298Z,99.04
2023-04-14T02:26:05.102Z,97.59
2023-04-14T02:28:34.786Z,97.24
2023-04-14T02:31:05.991Z,95.75
2023-04-14T02:33:37.082Z,95.35
2023-04-14T02:36:14.457Z,92.67
2023-04-14T02:38:50.438Z,91.06
2023-04-14T02:41:28.887Z,90.85
2023-04-14T02:44:11.053Z,89.49
2023-04-14T02:46:42.104Z,92.09
2023-04-14T02:49:13.874Z,91.53
2023-04-14T02:51:45.581Z,89.42
2023-04-14T02:54:14.419Z,89.24
2023-04-14T02:56:46.907Z,85.57
2023-04-14T02:59:15.079Z,84.57
2023-04-14T03:01:57.727Z,84.54
2023-04-14T03:04:25.982Z,81.70
2023-04-14T03:06:56.083Z,82.42
2023-04-14T03:09:24.704Z,83.50
2023-04-14T03:11:54.092Z,82.61
2023-04-14T03:14:23.093Z,83.59
2023-04-14T03:16:54.614Z,83.71
2023-04-14T03:19:24.557Z,82.91
2023-04-14T03:21:54.940Z,83.18
2023-04-14T03:24:31.030Z,82.95
2023-04-14T03:27:03.411Z,84.84
2023-04-14T03:29:40.931Z,85.99
2023-04-14T03:32:10.603Z,86.10
2023-04-14T03:34:44.994Z,85.94
2023-04-14T03:37:16.620Z,85.97
2023-04-14T03:39:46.090Z,84.66
2023-04-14T03:42:14.625Z,85.48
2023-04-14T03:44:46.463Z,84.01
2023-04-14T03:47:15.870Z,84.11
2023-04-14T03:49:47.049Z,84.34
2023-04-14T03:52:17.008Z,85.29
2023-04-14T03:54:46.126Z,85.76
2023-04-14T03:57:17.817Z,84.99
2023-04-14T03:59:50.921Z,83.72
2023-04-14T04:02:23.071Z,83.93
2023-04-14T04:04:51.628Z,83.37
2023-04-14T04:07:21.376Z,84.18
2023-04-14T04:09:51.074Z,85.14
2023-04-14T04:12:20.651Z,84.08
2023-04-14T04:14:48.526Z,83.60
2023-04-14T04:17:18.747Z,83.12
2023-04-14T04:19:48.181Z,84.28
2023-04-14T04:22:18.941Z,83.22
2023-04-14T04:24:48.758Z,83.39
2023-04-14T04:27:28.048Z,84.92
2023-04-14T04:30:11.757Z,83.04
2023-04-14T04:32:39.883Z,85.00
2023-04-14T04:35:09.338Z,85.16
2023-04-14T04:37:38.637Z,84.30
2023-04-14T04:40:31.976Z,85.20
2023-04-14T04:43:00.052Z,84.52
2023-04-14T04:45:38.970Z,83.69
2023-04-14T04:48:07.263Z,85.06
2023-04-14T04:50:34.962Z,85.11
2023-04-14T04:53:03.334Z,83.85
2023-04-14T04:55:31.144Z,84.20
2023-04-14T04:57:59.411Z,82.97
2023-04-14T05:00:27.430Z,83.03
2023-04-14T05:02:56.088Z,79.57
2023-04-14T05:05:23.831Z,79.49
2023-04-14T05:07:52.031Z,80.33
2023-04-14T05:10:19.744Z,79.36
2023-04-14T05:12:47.674Z,79.82
2023-04-14T05:15:16.353Z,75.13
2023-04-14T05:17:44.341Z,74.99
2023-04-14T05:20:12.286Z,73.60
2023-04-14T05:22:40.684Z,73.73
2023-04-14T05:25:08.530Z,73.67
2023-04-14T05:27:36.563Z,72.87
2023-04-14T05:30:04.229Z,72.95
2023-04-14T05:32:32.234Z,74.52
2023-04-14T05:34:59.996Z,72.71
2023-04-14T05:37:30.166Z,71.55
2023-04-14T05:39:57.794Z,69.33
2023-04-14T05:42:25.863Z,69.63
2023-04-14T05:44:53.463Z,68.27
2023-04-14T05:47:21.498Z,69.79
2023-04-14T05:49:49.093Z,70.41
2023-04-14T05:52:17.044Z,71.36
2023-04-14T05:54:44.699Z,69.34
2023-04-14T05:57:12.613Z,67.48
2023-04-14T05:59:40.243Z,66.65
2023-04-14T06:02:08.405Z,66.83
2023-04-14T06:04:36.294Z,68.20
2023-04-14T06:07:04.500Z,67.29
2023-04-14T06:09:32.341Z,66.37
2023-04-14T06:12:01.744Z,64.64
2023-04-14T06:14:29.465Z,65.57
2023-04-14T06:16:57.575Z,65.13
2023-04-14T06:19:25.346Z,64.70
2023-04-14T06:21:53.293Z,65.73
2023-04-14T06:24:20.960Z,65.40
2023-04-14T06:26:48.945Z,64.33
2023-04-14T06:29:16.694Z,64.12
2023-04-14T06:31:44.826Z,64.06
2023-04-14T06:34:12.453Z,64.52
2023-04-14T06:36:40.459Z,62.28
2023-04-14T06:39:08.065Z,61.13
2023-04-14T06:41:36.134Z,62.24
2023-04-14T06:44:05.228Z,62.62
2023-04-14T06:46:36.200Z,61.23
2023-04-14T06:49:04.111Z,61.08
2023-04-14T06:51:32.852Z,60.08
2023-04-14T06:54:01.020Z,61.58
2023-04-14T06:56:29.212Z,60.99
2023-04-14T06:58:56.913Z,62.37
2023-04-14T07:01:24.902Z,63.34
2023-04-14T07:03:52.615Z,66.12
2023-04-14T07:06:20.751Z,67.95
2023-04-14T07:08:48.427Z,64.76
2023-04-14T07:11:16.397Z,64.07
2023-04-14T07:13:43.973Z,62.24
2023-04-14T07:16:12.295Z,62.25
2023-04-14T07:18:39.991Z,59.37
2023-04-14T07:21:07.940Z,59.83
2023-04-14T07:23:35.707Z,60.63
2023-04-14T07:26:03.797Z,61.28
2023-04-14T07:28:32.825Z,59.84
2023-04-14T07:31:07.758Z,61.07
2023-04-14T07:33:35.994Z,59.12
2023-04-14T07:36:08.262Z,60.26
2023-04-14T07:38:35.855Z,60.52
2023-04-14T07:41:04.683Z,59.39
2023-04-14T07:43:36.022Z,59.67
2023-04-14T07:46:07.787Z,57.35
2023-04-14T07:48:37.349Z,55.75
2023-04-14T07:51:05.332Z,54.91
2023-04-14T07:53:33.339Z,55.13
2023-04-14T07:56:01.782Z,55.46
2023-04-14T07:58:30.002Z,55.18
2023-04-14T08:00:58.593Z,55.08
2023-04-14T08:03:26.969Z,54.68
2023-04-14T08:05:55.717Z,53.82
2023-04-14T08:08:23.825Z,55.63
2023-04-14T08:10:52.141Z,55.02
2023-04-14T08:13:19.736Z,53.98
2023-04-14T08:15:47.745Z,53.68
2023-04-14T08:18:15.664Z,51.71
2023-04-14T08:20:44.531Z,52.65
2023-04-14T08:23:12.513Z,53.87
2023-04-14T08:25:40.567Z,52.76
2023-04-14T08:28:08.260Z,50.98
2023-04-14T08:30:36.321Z,52.08
2023-04-14T08:33:04.278Z,51.88
2023-04-14T08:35:38.042Z,50.60
2023-04-14T08:38:09.488Z,51.58
2023-04-14T08:40:38.844Z,52.21
2023-04-14T08:43:06.795Z,52.65
2023-04-14T08:45:35.297Z,52.69
2023-04-14T08:48:03.969Z,50.89
2023-04-14T08:50:34.125Z,50.97
2023-04-14T08:53:04.478Z,50.02
2023-04-14T08:55:32.835Z,49.98
2023-04-14T08:58:02.421Z,48.70
2023-04-14T09:00:31.646Z,47.99
2023-04-14T09:02:59.892Z,48.00
2023-04-14T09:05:29.901Z,47.54
2023-04-14T09:07:58.420Z,47.98
2023-04-14T09:10:27.240Z,47.65
2023-04-14T09:12:55.040Z,46.97
2023-04-14T09:15:24.698Z,46.93
2023-04-14T09:17:52.413Z,46.02
2023-04-14T09:20:35.106Z,46.96
2023-04-14T09:23:08.141Z,49.20
2023-04-14T09:25:36.834Z,50.00
2023-04-14T09:28:04.568Z,50.93
2023-04-14T09:30:33.063Z,51.41
2023-04-14T09:33:04.767Z,51.40
2023-04-14T09:35:47.020Z,51.48
2023-04-14T09:38:15.017Z,51.96
2023-04-14T09:40:44.147Z,53.48
2023-04-14T09:43:25.635Z,52.30
2023-04-14T09:45:54.278Z,50.81
2023-04-14T09:48:22.360Z,53.13
2023-04-14T09:51:01.458Z,54.67
2023-04-14T09:53:30.534Z,52.83
2023-04-14T09:56:03.676Z,53.71
2023-04-14T09:58:35.470Z,52.58
2023-04-14T10:01:21.998Z,49.67
2023-04-14T10:03:50.413Z,48.59
2023-04-14T10:06:19.555Z,49.35
2023-04-14T10:08:49.061Z,49.23
2023-04-14T10:11:26.654Z,48.91
2023-04-14T10:13:55.828Z,48.85
2023-04-14T10:16:24.456Z,48.10
2023-04-14T10:18:52.442Z,47.93
2023-04-14T10:21:23.233Z,47.51
2023-04-14T10:23:51.456Z,47.55
2023-04-14T10:26:20.259Z,48.46
2023-04-14T10:28:49.342Z,49.19
2023-04-14T10:31:32.784Z,49.06
2023-04-14T10:34:07.730Z,48.15
2023-04-14T10:36:37.424Z,48.27
2023-04-14T10:39:05.776Z,47.85
2023-04-14T10:41:43.227Z,46.62
2023-04-14T10:44:23.905Z,46.98
2023-04-14T10:46:52.495Z,47.28
2023-04-14T10:49:23.338Z,47.16
2023-04-14T10:51:51.301Z,47.36
2023-04-14T10:54:19.498Z,45.69
2023-04-14T10:57:08.231Z,46.68
2023-04-14T10:59:36.170Z,44.61
2023-04-14T11:02:04.268Z,45.27
2023-04-14T11:04:32.262Z,42.77
2023-04-14T11:07:08.846Z,44.00
2023-04-14T11:09:39.381Z,41.06
2023-04-14T11:12:27.822Z,40.19
2023-04-14T11:14:56.950Z,41.14
2023-04-14T11:17:29.607Z,39.89
2023-04-14T11:19:58.187Z,42.27
2023-04-14T11:22:42.622Z,42.44
2023-04-14T11:25:14.406Z,41.82
2023-04-14T11:27:43.401Z,41.87
2023-04-14T11:30:20.611Z,42.72
2023-04-14T11:32:50.684Z,41.80
2023-04-14T11:35:19.336Z,40.28
2023-04-14T11:37:47.341Z,40.36
2023-04-14T11:40:16.106Z,38.48
2023-04-14T11:42:46.825Z,39.02
2023-04-14T11:45:17.573Z,39.86
2023-04-14T11:48:01.808Z,41.66
2023-04-14T11:50:33.870Z,41.63
2023-04-14T11:53:03.225Z,41.89
2023-04-14T11:55:31.028Z,40.44
2023-04-14T11:57:59.406Z,40.76
2023-04-14T12:00:27.717Z,40.84
2023-04-14T12:02:56.816Z,41.01
2023-04-14T12:05:31.810Z,38.98
2023-04-14T12:08:00.732Z,38.61
2023-04-14T12:10:28.952Z,35.63
2023-04-14T12:13:01.873Z,34.78
2023-04-14T12:15:31.324Z,32.48
2023-04-14T12:17:59.980Z,33.45
2023-04-14T12:20:28.178Z,33.41
2023-04-14T12:23:03.001Z,32.46
2023-04-14T12:25:33.836Z,35.07
2023-04-14T12:28:08.906Z,35.57
2023-04-14T12:30:37.561Z,36.46
2023-04-14T12:33:12.262Z,36.16
2023-04-14T12:35:40.953Z,37.65
2023-04-14T12:38:15.108Z,37.53
2023-04-14T12:40:48.139Z,38.11
2023-04-14T12:43:16.994Z,35.49
2023-04-14T12:45:45.498Z,36.84
2023-04-14T12:48:14.500Z,37.63
2023-04-14T12:50:42.186Z,36.82
2023-04-14T12:53:29.235Z,37.21
2023-04-14T12:56:09.376Z,36.54
2023-04-14T12:58:38.153Z,35.92
2023-04-14T13:01:09.446Z,36.25
2023-04-14T13:03:47.784Z,37.43
2023-04-14T13:06:18.944Z,37.72
2023-04-14T13:08:47.980Z,37.66
2023-04-14T13:11:16.547Z,37.11
2023-04-14T13:13:45.901Z,37.26
2023-04-14T13:16:17.069Z,34.20
2023-04-14T13:18:47.467Z,32.66
2023-04-14T13:21:15.406Z,34.22
2023-04-14T13:23:43.440Z,34.12
2023-04-14T13:26:11.213Z,33.21
2023-04-14T13:28:39.481Z,34.65
2023-04-14T13:31:07.499Z,33.20
2023-04-14T13:33:35.762Z,32.70
2023-04-14T13:36:03.455Z,32.50
2023-04-14T13:38:31.594Z,32.93
2023-04-14T13:40:59.404Z,30.45
2023-04-14T13:43:27.421Z,32.32
2023-04-14T13:45:58.809Z,33.35
2023-04-14T13:48:27.541Z,32.84
2023-04-14T13:50:56.096Z,31.68
2023-04-14T13:53:24.252Z,32.91
2023-04-14T13:55:51.931Z,33.98
2023-04-14T13:58:19.876Z,31.77
2023-04-14T14:00:47.513Z,32.42
2023-04-14T14:03:16.022Z,35.09
2023-04-14T14:05:44.051Z,35.18
2023-04-14T14:08:13.706Z,33.95
2023-04-14T14:10:41.723Z,32.75
2023-04-14T14:13:09.911Z,32.05
2023-04-14T14:15:37.590Z,29.95
2023-04-14T14:18:05.685Z,31.32
2023-04-14T14:20:33.282Z,31.38
2023-04-14T14:23:01.280Z,30.25
2023-04-14T14:25:29.733Z,28.10
2023-04-14T14:27:59.739Z,29.57
2023-04-14T14:30:27.510Z,26.92
2023-04-14T14:32:55.577Z,28.00
2023-04-14T14:35:23.285Z,27.27
2023-04-14T14:37:51.662Z,26.35
2023-04-14T14:40:19.388Z,27.58
2023-04-14T14:42:47.365Z,27.14
2023-04-14T14:45:15.524Z,26.84
2023-04-14T14:47:46.999Z,27.86
2023-04-14T14:50:14.566Z,28.08
2023-04-14T14:52:42.487Z,27.65
2023-04-14T14:55:10.469Z,26.83
2023-04-14T14:57:38.419Z,27.21
2023-04-14T15:00:08.238Z,26.06
2023-04-14T15:02:36.795Z,27.45
2023-04-14T15:05:05.369Z,27.77
2023-04-14T15:07:33.777Z,27.04
2023-04-14T15:10:04.056Z,27.68
2023-04-14T15:12:32.163Z,29.17
2023-04-14T15:14:59.899Z,28.85
2023-04-14T15:17:28.209Z,27.56
2023-04-14T15:19:55.837Z,26.84
2023-04-14T15:22:24.131Z,25.25
2023-04-14T15:24:51.834Z,25.34
2023-04-14T15:27:19.826Z,23.95
2023-04-14T15:29:47.429Z,23.91
2023-04-14T15:32:15.674Z,24.71
2023-04-14T15:34:43.354Z,24.41
2023-04-14T15:37:11.445Z,25.05
2023-04-14T15:39:39.168Z,25.23
2023-04-14T15:42:07.544Z,26.42
2023-04-14T15:44:35.207Z,26.50
2023-04-14T15:47:03.303Z,26.83
2023-04-14T15:49:31.266Z,26.87
2023-04-14T15:51:59.251Z,25.80
2023-04-14T15:54:28.486Z,25.60
2023-04-14T15:56:56.363Z,25.10
2023-04-14T15:59:25.394Z,24.94
2023-04-14T16:01:53.789Z,24.79
2023-04-14T16:04:21.663Z,24.92
2023-04-14T16:06:49.747Z,24.96
2023-04-14T16:09:17.455Z,24.64
2023-04-14T16:11:45.535Z,25.27
2023-04-14T16:14:14.002Z,26.26
2023-04-14T16:16:46.954Z,27.27
2023-04-14T16:19:17.545Z,27.60
2023-04-14T16:21:45.569Z,27.67
2023-04-14T16:24:13.327Z,26.28
2023-04-14T16:26:41.602Z,26.33
2023-04-14T16:29:09.695Z,25.75
2023-04-14T16:31:37.985Z,25.46
2023-04-14T16:34:05.702Z,23.96
2023-04-14T16:36:34.535Z,23.74
2023-04-14T16:39:02.491Z,23.14
2023-04-14T16:41:30.710Z,23.53
2023-04-14T16:43:58.300Z,22.77
2023-04-14T16:46:26.425Z,25.30
2023-04-14T16:48:54.016Z,27.18
2023-04-14T16:51:22.288Z,28.51
2023-04-14T16:53:49.943Z,29.67
2023-04-14T16:56:18.168Z,31.12
2023-04-14T16:58:45.870Z,31.80
2023-04-14T17:01:13.846Z,32.09
2023-04-14T17:03:41.857Z,32.87
2023-04-14T17:06:09.992Z,32.70
2023-04-14T17:08:38.452Z,32.43
2023-04-14T17:11:06.577Z,32.10
2023-04-14T17:13:34.744Z,32.60
2023-04-14T17:16:08.933Z,32.88
2023-04-14T17:18:37.794Z,32.98
2023-04-14T17:21:06.569Z,32.67
2023-04-14T17:23:38.062Z,32.75
2023-04-14T17:26:06.588Z,32.77
2023-04-14T17:28:35.153Z,32.18
2023-04-14T17:31:06.363Z,32.08
2023-04-14T17:33:34.086Z,32.13
2023-04-14T17:36:02.729Z,31.77
2023-04-14T17:38:31.436Z,32.31
2023-04-14T17:40:59.556Z,31.75
2023-04-14T17:43:27.574Z,32.26
2023-04-14T17:45:55.565Z,32.10
2023-04-14T17:48:23.396Z,32.59
2023-04-14T17:50:51.865Z,32.75
2023-04-14T17:53:19.514Z,32.96
2023-04-14T17:55:47.827Z,33.34
2023-04-14T17:58:15.534Z,33.71
2023-04-14T18:00:43.179Z,33.91
2023-04-14T18:03:11.328Z,34.00
2023-04-14T18:05:39.030Z,34.00
2023-04-14T18:08:06.997Z,34.45
2023-04-14T18:10:36.306Z,34.51
2023-04-14T18:13:04.258Z,34.87
2023-04-14T18:15:32.438Z,34.34
2023-04-14T18:18:00.698Z,34.00
2023-04-14T18:20:28.754Z,34.25
2023-04-14T18:23:02.255Z,34.42
2023-04-14T18:28:07.859Z,34.21
2023-04-14T18:30:38.986Z,34.47
2023-04-14T18:33:12.823Z,34.43
2023-04-14T18:35:40.838Z,35.07
2023-04-14T18:38:09.067Z,35.33
2023-04-14T18:40:38.201Z,35.06
2023-04-14T18:43:07.025Z,35.26
2023-04-14T18:45:35.045Z,35.07
2023-04-14T18:48:03.215Z,35.29
2023-04-14T18:50:31.165Z,35.43
2023-04-14T18:52:59.180Z,35.43
2023-04-14T18:55:26.915Z,35.25
2023-04-14T18:58:13.254Z,35.56
2023-04-14T19:00:42.776Z,36.80
2023-04-14T19:03:11.135Z,37.98
2023-04-14T19:05:38.994Z,37.40
2023-04-14T19:08:09.956Z,37.70
2023-04-14T19:10:37.774Z,38.28
2023-04-14T19:13:05.983Z,41.56
2023-04-14T19:15:33.936Z,43.48
2023-04-14T19:18:03.817Z,44.23
2023-04-14T19:20:31.807Z,44.93
2023-04-14T19:23:00.146Z,48.60
2023-04-14T19:25:27.828Z,49.18
2023-04-14T19:27:58.136Z,51.20
2023-04-14T19:30:25.745Z,52.03
2023-04-14T19:32:54.733Z,53.62
2023-04-14T19:35:22.823Z,54.67
2023-04-14T19:37:55.858Z,54.47
2023-04-14T19:40:23.620Z,55.24
2023-04-14T19:42:55.490Z,56.03
2023-04-14T19:45:23.274Z,55.61
2023-04-14T19:47:52.094Z,55.43
2023-04-14T19:50:20.323Z,55.49
2023-04-14T19:52:50.068Z,55.86
2023-04-14T19:55:18.574Z,55.43
2023-04-14T19:57:47.128Z,55.20
2023-04-14T20:00:16.264Z,55.59
2023-04-14T20:02:45.234Z,56.14
2023-04-14T20:05:12.996Z,55.69
2023-04-14T20:07:41.230Z,55.85
2023-04-14T20:10:10.440Z,56.26
2023-04-14T20:12:38.656Z,56.46
2023-04-14T20:15:06.601Z,56.94
2023-04-14T20:17:35.184Z,56.57
2023-04-14T20:20:06.037Z,56.29
2023-04-14T20:22:34.416Z,56.18
2023-04-14T20:25:02.318Z,56.30
2023-04-14T20:27:30.336Z,55.49
2023-04-14T20:29:58.183Z,55.36
2023-04-14T20:32:26.387Z,54.93
2023-04-14T20:34:54.213Z,54.54
2023-04-14T20:37:22.998Z,54.74
2023-04-14T20:39:52.885Z,54.70
2023-04-14T20:42:20.768Z,54.50
2023-04-14T20:44:48.314Z,54.62
2023-04-14T20:47:17.197Z,53.98
2023-04-14T20:49:45.215Z,54.68
2023-04-14T20:52:13.077Z,54.17
2023-04-14T20:54:40.648Z,53.89
2023-04-14T20:57:08.957Z,54.32
2023-04-14T20:59:36.913Z,53.69
2023-04-14T21:02:05.104Z,53.83
2023-04-14T21:04:33.604Z,53.36
2023-04-14T21:07:01.986Z,53.05
2023-04-14T21:09:30.511Z,52.91
2023-04-14T21:12:15.948Z,52.56
2023-04-14T21:15:47.305Z,52.24
2023-04-14T21:17:34.734Z,52.16
2023-04-14T21:20:03.833Z,51.56
2023-04-14T21:22:32.292Z,51.84
2023-04-14T21:25:00.026Z,52.00
2023-04-14T21:27:30.885Z,51.55
2023-04-14T21:29:58.611Z,51.15
2023-04-14T21:32:26.710Z,51.72
2023-04-14T21:34:54.835Z,51.65
2023-04-14T21:37:23.445Z,51.82
2023-04-14T21:39:50.982Z,51.80
2023-04-14T21:42:19.026Z,51.46
2023-04-14T21:44:47.109Z,51.74
2023-04-14T21:47:15.042Z,51.23
2023-04-14T21:49:42.604Z,51.21
2023-04-14T21:52:10.772Z,50.83
2023-04-14T21:54:43.796Z,51.19
2023-04-14T21:57:11.776Z,50.86
2023-04-14T21:59:39.415Z,50.67
2023-04-14T22:02:07.574Z,49.72
2023-04-14T22:04:37.036Z,50.20
2023-04-14T22:07:05.632Z,50.18
2023-04-14T22:09:33.954Z,50.90
2023-04-14T22:12:02.236Z,50.54
2023-04-14T22:14:29.753Z,50.98
2023-04-14T22:16:57.720Z,50.82
2023-04-14T22:19:25.305Z,51.47
2023-04-14T22:21:53.220Z,50.90
2023-04-14T22:24:20.765Z,50.50
2023-04-14T22:26:49.053Z,51.33
2023-04-14T22:29:16.580Z,50.84
2023-04-14T22:31:44.588Z,50.50
2023-04-14T22:34:12.175Z,50.57
2023-04-14T22:36:40.094Z,50.22
2023-04-14T22:39:07.684Z,50.30
2023-04-14T22:41:35.577Z,50.33
2023-04-14T22:44:06.306Z,50.40
2023-04-14T22:46:34.398Z,50.64
2023-04-14T22:49:02.357Z,51.01
2023-04-14T22:51:30.583Z,51.35
2023-04-14T22:53:58.133Z,50.73
2023-04-14T22:56:26.693Z,50.58
2023-04-14T22:58:54.715Z,50.87
2023-04-14T23:01:23.729Z,51.64
2023-04-14T23:03:53.079Z,52.16
2023-04-14T23:06:21.605Z,52.01
2023-04-14T23:08:49.863Z,52.01
2023-04-14T23:11:21.099Z,51.93
2023-04-14T23:13:49.534Z,51.67
2023-04-14T23:16:21.850Z,51.92
2023-04-14T23:18:53.133Z,51.92
2023-04-14T23:21:24.012Z,51.74
2023-04-14T23:23:51.988Z,51.81
2023-04-14T23:26:21.452Z,51.95
2023-04-14T23:28:49.161Z,52.00
2023-04-14T23:31:18.299Z,52.00
2023-04-14T23:33:48.923Z,51.61
2023-04-14T23:36:16.884Z,52.06
2023-04-14T23:38:44.994Z,51.23
2023-04-14T23:41:12.967Z,50.78
2023-04-14T23:43:40.532Z,50.52
2023-04-14T23:46:08.420Z,50.70
2023-04-14T23:48:36.044Z,50.77
2023-04-14T23:51:17.588Z,50.82
2023-04-14T23:53:50.859Z,51.31
2023-04-14T23:56:18.990Z,51.82
2023-04-14T23:58:47.330Z,51.44
